createdAt,value
2023-06-15T00:01:39.429Z,5.75
2023-06-15T00:04:28.186Z,9.55
2023-06-15T00:07:16.054Z,7.00
2023-06-15T00:10:04.100Z,10.75
2023-06-15T00:12:51.960Z,6.22
2023-06-15T00:15:41.519Z,8.98
2023-06-15T00:18:29.543Z,6.78
2023-06-15T00:21:17.685Z,10.88
2023-06-15T00:24:06.126Z,9.88
2023-06-15T00:26:53.958Z,8.43
2023-06-15T00:29:41.705Z,6.72
2023-06-15T00:32:30.908Z,8.98
2023-06-15T00:35:19.294Z,6.72
2023-06-15T00:38:07.225Z,8.65
2023-06-15T00:40:55.205Z,6.25
2023-06-15T00:43:43.073Z,16.02
2023-06-15T00:46:31.156Z,6.40
2023-06-15T00:49:22.970Z,8.43
2023-06-15T00:52:10.783Z,6.57
2023-06-15T00:54:58.509Z,8.30
2023-06-15T00:57:50.876Z,11.07
2023-06-15T01:00:39.221Z,10.68
2023-06-15T01:03:27.115Z,11.65
2023-06-15T01:06:20.876Z,8.68
2023-06-15T01:09:08.778Z,12.32
2023-06-15T01:11:59.805Z,17.20
2023-06-15T01:14:47.750Z,12.73
2023-06-15T01:17:36.752Z,12.88
2023-06-15T01:20:29.433Z,11.88
2023-06-15T01:23:30.001Z,11.02
2023-06-15T01:26:22.139Z,13.45
2023-06-15T01:29:12.036Z,12.95
2023-06-15T01:32:00.253Z,18.17
2023-06-15T01:34:48.162Z,13.05
2023-06-15T01:37:35.951Z,9.05
2023-06-15T01:40:24.188Z,17.60
2023-06-15T01:43:15.547Z,11.85
2023-06-15T01:46:04.971Z,17.25
2023-06-15T01:48:54.437Z,11.27
2023-06-15T01:51:43.007Z,9.68
2023-06-15T01:54:31.233Z,13.75
2023-06-15T01:57:21.888Z,13.82
2023-06-15T02:00:13.806Z,18.88
2023-06-15T02:03:02.944Z,12.73
2023-06-15T02:05:50.958Z,10.75
2023-06-15T02:08:38.950Z,10.25
2023-06-15T02:11:27.250Z,11.18
2023-06-15T02:14:18.931Z,15.07
2023-06-15T02:17:08.463Z,16.98
2023-06-15T02:19:56.268Z,15.07
2023-06-15T02:22:44.270Z,19.50
2023-06-15T02:25:32.748Z,17.00
2023-06-15T02:28:20.804Z,24.20
2023-06-15T02:31:08.604Z,17.77
2023-06-15T02:33:58.038Z,22.55
2023-06-15T02:36:47.445Z,16.58
2023-06-15T02:39:36.002Z,22.67
2023-06-15T02:42:23.821Z,13.93
2023-06-15T02:45:12.143Z,11.98
2023-06-15T02:48:00.190Z,18.63
2023-06-15T02:50:49.411Z,9.85
2023-06-15T02:53:37.529Z,15.52
2023-06-15T02:56:25.088Z,26.75
2023-06-15T02:59:13.052Z,20.83
2023-06-15T03:02:01.563Z,16.38
2023-06-15T03:04:51.628Z,19.88
2023-06-15T03:07:41.784Z,11.18
2023-06-15T03:10:29.689Z,20.27
2023-06-15T03:13:18.194Z,12.93
2023-06-15T03:16:08.273Z,16.98
2023-06-15T03:18:56.117Z,15.15
2023-06-15T03:21:43.947Z,14.15
2023-06-15T03:24:34.183Z,17.40
2023-06-15T03:27:22.041Z,21.83
2023-06-15T03:30:11.953Z,14.68
2023-06-15T03:33:01.140Z,12.85
2023-06-15T03:35:50.683Z,15.68
2023-06-15T03:38:38.398Z,14.13
2023-06-15T03:41:28.585Z,31.88
2023-06-15T03:44:16.699Z,16.83
2023-06-15T03:47:04.928Z,12.60
2023-06-15T03:49:53.039Z,12.23
2023-06-15T03:52:40.882Z,13.23
2023-06-15T03:55:28.934Z,12.63
2023-06-15T03:58:18.830Z,13.35
2023-06-15T04:01:07.156Z,16.83
2023-06-15T04:03:55.966Z,14.00
2023-06-15T04:06:47.530Z,21.85
2023-06-15T04:09:35.843Z,19.15
2023-06-15T04:12:23.839Z,14.10
2023-06-15T04:15:13.412Z,9.80
2023-06-15T04:18:02.254Z,12.25
2023-06-15T04:20:50.100Z,14.43
2023-06-15T04:23:37.925Z,9.80
2023-06-15T04:26:25.798Z,10.90
2023-06-15T04:29:15.557Z,13.07
2023-06-15T04:32:06.342Z,10.23
2023-06-15T04:34:55.824Z,14.48
2023-06-15T04:37:43.550Z,17.75
2023-06-15T04:40:31.565Z,19.77
2023-06-15T04:43:19.987Z,16.58
2023-06-15T04:46:07.936Z,13.32
2023-06-15T04:48:57.571Z,13.95
2023-06-15T04:51:45.562Z,13.68
2023-06-15T04:54:33.300Z,11.07
2023-06-15T04:57:21.101Z,16.50
2023-06-15T05:00:11.315Z,14.27
2023-06-15T05:02:59.345Z,11.00
2023-06-15T05:05:48.722Z,11.68
2023-06-15T05:08:36.765Z,11.55
2023-06-15T05:11:24.742Z,15.52
2023-06-15T05:14:12.513Z,18.77
2023-06-15T05:17:04.459Z,13.98
2023-06-15T05:19:52.288Z,10.65
2023-06-15T05:22:41.478Z,10.63
2023-06-15T05:25:29.730Z,10.77
2023-06-15T05:28:18.661Z,12.13
2023-06-15T05:31:09.786Z,15.35
2023-06-15T05:33:57.564Z,12.32
2023-06-15T05:36:55.082Z,10.43
2023-06-15T05:39:46.832Z,12.32
2023-06-15T05:42:34.581Z,13.07
2023-06-15T05:45:23.005Z,14.40
2023-06-15T05:48:12.218Z,9.93
2023-06-15T05:50:59.964Z,11.80
2023-06-15T05:53:47.994Z,12.60
2023-06-15T05:56:37.179Z,12.93
2023-06-15T05:59:33.233Z,14.05
2023-06-15T06:02:22.014Z,9.48
2023-06-15T06:05:10.119Z,14.60
2023-06-15T06:07:58.059Z,12.82
2023-06-15T06:10:46.080Z,16.50
2023-06-15T06:13:35.884Z,13.90
2023-06-15T06:16:23.758Z,9.68
2023-06-15T06:19:11.826Z,9.43
2023-06-15T06:21:59.693Z,12.93
2023-06-15T06:24:47.540Z,8.98
2023-06-15T06:27:36.242Z,9.30
2023-06-15T06:30:25.514Z,9.65
2023-06-15T06:33:13.372Z,10.10
2023-06-15T06:36:01.438Z,11.05
2023-06-15T06:39:01.116Z,9.35
2023-06-15T06:41:50.311Z,15.02
2023-06-15T06:44:38.171Z,8.43
2023-06-15T06:47:27.320Z,10.63
2023-06-15T06:50:15.126Z,9.32
2023-06-15T06:53:03.074Z,9.80
2023-06-15T06:55:50.862Z,13.23
2023-06-15T06:58:38.862Z,10.57
2023-06-15T07:01:26.928Z,8.15
2023-06-15T07:04:16.367Z,13.27
2023-06-15T07:07:04.244Z,7.50
2023-06-15T07:09:52.094Z,8.32
2023-06-15T07:12:40.108Z,9.80
2023-06-15T07:15:28.893Z,8.75
2023-06-15T07:18:17.547Z,7.22
2023-06-15T07:21:06.700Z,8.48
2023-06-15T07:23:54.857Z,8.77
2023-06-15T07:26:42.802Z,9.05
2023-06-15T07:29:30.816Z,9.77
2023-06-15T07:32:18.724Z,8.30
2023-06-15T07:35:07.027Z,8.73
2023-06-15T07:37:56.260Z,7.57
2023-06-15T07:40:44.428Z,6.75
2023-06-15T07:43:32.361Z,9.25
2023-06-15T07:46:20.182Z,7.65
2023-06-15T07:49:08.584Z,7.20
2023-06-15T07:52:05.038Z,8.00
2023-06-15T07:54:59.680Z,6.75
2023-06-15T07:57:47.697Z,7.68
2023-06-15T08:00:35.533Z,6.90
2023-06-15T08:03:23.544Z,8.82
2023-06-15T08:06:12.365Z,6.40
2023-06-15T08:09:00.851Z,8.77
2023-06-15T08:11:51.544Z,7.82
2023-06-15T08:14:39.347Z,10.88
2023-06-15T08:17:28.141Z,6.88
2023-06-15T08:20:16.969Z,10.48
2023-06-15T08:23:05.256Z,6.70
2023-06-15T08:25:54.128Z,8.35
2023-06-15T08:28:53.515Z,10.75
2023-06-15T08:31:44.024Z,10.13
2023-06-15T08:34:32.024Z,6.97
2023-06-15T08:37:20.166Z,6.28
2023-06-15T08:40:09.527Z,8.98
2023-06-15T08:42:58.892Z,6.57
2023-06-15T08:45:50.973Z,5.43
2023-06-15T08:48:40.762Z,7.97
2023-06-15T08:51:28.863Z,7.45
2023-06-15T08:54:19.660Z,4.82
2023-06-15T08:57:07.674Z,4.75
2023-06-15T08:59:57.318Z,9.38
2023-06-15T09:02:47.993Z,4.60
2023-06-15T09:05:36.119Z,5.88
2023-06-15T09:08:24.277Z,5.03
2023-06-15T09:11:12.205Z,4.15
2023-06-15T09:14:00.240Z,4.78
2023-06-15T09:16:51.101Z,4.80
2023-06-15T09:19:40.433Z,6.22
2023-06-15T09:22:30.164Z,6.55
2023-06-15T09:25:20.499Z,6.88
2023-06-15T09:28:09.468Z,6.00
2023-06-15T09:30:57.921Z,9.18
2023-06-15T09:33:45.744Z,7.05
2023-06-15T09:36:41.939Z,7.00
2023-06-15T09:39:30.118Z,3.97
2023-06-15T09:42:17.988Z,4.30
2023-06-15T09:45:08.405Z,3.90
2023-06-15T09:47:58.066Z,5.00
2023-06-15T09:50:50.520Z,6.05
2023-06-15T09:53:41.320Z,3.90
2023-06-15T09:56:31.895Z,5.68
2023-06-15T09:59:21.370Z,5.00
2023-06-15T10:02:13.498Z,4.47
2023-06-15T10:05:01.880Z,4.53
2023-06-15T10:07:51.224Z,3.95
2023-06-15T10:10:47.522Z,9.77
2023-06-15T10:13:41.976Z,5.75
2023-06-15T10:16:31.870Z,6.43
2023-06-15T10:19:23.644Z,5.93
2023-06-15T10:22:17.030Z,4.97
2023-06-15T10:25:06.594Z,6.13
2023-06-15T10:27:56.526Z,3.95
2023-06-15T10:30:49.609Z,5.25
2023-06-15T10:33:43.076Z,4.47
2023-06-15T10:36:32.530Z,7.88
2023-06-15T10:39:27.201Z,8.40
2023-06-15T10:42:15.562Z,5.68
2023-06-15T10:45:28.417Z,7.10
2023-06-15T10:48:24.020Z,7.00
2023-06-15T10:51:16.280Z,6.00
2023-06-15T10:54:05.363Z,4.95
2023-06-15T10:56:54.912Z,6.70
2023-06-15T10:59:44.323Z,5.35
2023-06-15T11:03:00.274Z,5.93
2023-06-15T11:05:48.299Z,4.35
2023-06-15T11:08:50.597Z,4.70
2023-06-15T11:11:40.432Z,4.95
2023-06-15T11:14:28.675Z,8.30
2023-06-15T11:17:22.842Z,6.03
2023-06-15T11:20:52.567Z,4.13
2023-06-15T11:23:46.895Z,3.42
2023-06-15T11:26:35.379Z,3.95
2023-06-15T11:29:27.107Z,7.85
2023-06-15T11:32:15.156Z,4.75
2023-06-15T11:35:05.058Z,8.75
2023-06-15T11:37:52.919Z,4.10
2023-06-15T11:40:42.240Z,4.10
2023-06-15T11:43:34.765Z,5.93
2023-06-15T11:46:24.006Z,4.30
2023-06-15T11:49:13.031Z,3.78
2023-06-15T11:52:00.928Z,4.30
2023-06-15T11:54:53.300Z,4.00
2023-06-15T11:57:45.689Z,7.22
2023-06-15T12:00:34.072Z,5.38
2023-06-15T12:03:22.849Z,5.10
2023-06-15T12:06:10.810Z,4.57
2023-06-15T12:08:59.008Z,3.30
2023-06-15T12:11:47.194Z,4.03
2023-06-15T12:14:36.604Z,5.05
2023-06-15T12:17:29.288Z,4.15
2023-06-15T12:20:17.341Z,4.75
2023-06-15T12:23:06.114Z,3.67
2023-06-15T12:25:56.343Z,4.38
2023-06-15T12:28:44.392Z,4.55
2023-06-15T12:31:36.850Z,4.47
2023-06-15T12:34:26.477Z,3.72
2023-06-15T12:37:14.586Z,3.67
2023-06-15T12:40:02.445Z,6.53
2023-06-15T12:42:58.777Z,4.25
2023-06-15T12:45:47.583Z,3.35
2023-06-15T12:48:36.800Z,4.43
2023-06-15T12:51:24.724Z,6.40
2023-06-15T12:54:12.569Z,4.07
2023-06-15T12:57:00.507Z,5.70
2023-06-15T12:59:48.458Z,6.80
2023-06-15T13:02:36.573Z,3.60
2023-06-15T13:05:25.939Z,4.53
2023-06-15T13:08:15.763Z,4.13
2023-06-15T13:11:03.555Z,4.65
2023-06-15T13:13:51.347Z,8.68
2023-06-15T13:16:39.141Z,5.55
2023-06-15T13:19:26.840Z,6.68
2023-06-15T13:22:16.021Z,7.35
2023-06-15T13:25:05.848Z,7.53
2023-06-15T13:27:53.935Z,6.60
2023-06-15T13:30:41.923Z,4.97
2023-06-15T13:33:29.980Z,8.88
2023-06-15T13:36:17.701Z,4.85
2023-06-15T13:39:07.116Z,6.20
2023-06-15T13:41:55.514Z,4.03
2023-06-15T13:44:43.276Z,4.28
2023-06-15T13:47:31.357Z,4.35
2023-06-15T13:50:21.105Z,4.35
2023-06-15T13:53:09.351Z,4.63
2023-06-15T13:55:58.621Z,4.15
2023-06-15T13:58:46.602Z,5.90
2023-06-15T14:01:34.484Z,5.30
2023-06-15T14:04:22.592Z,3.40
2023-06-15T14:07:10.550Z,5.60
2023-06-15T14:09:58.299Z,3.97
2023-06-15T14:12:47.370Z,4.40
2023-06-15T14:15:35.482Z,3.70
2023-06-15T14:18:24.528Z,6.15
2023-06-15T14:21:12.343Z,4.00
2023-06-15T14:24:00.396Z,6.65
2023-06-15T14:26:49.174Z,6.05
2023-06-15T14:29:38.579Z,5.00
2023-06-15T14:32:26.748Z,9.32
2023-06-15T14:35:14.854Z,4.43
2023-06-15T14:38:03.393Z,6.60
2023-06-15T14:40:51.287Z,4.85
2023-06-15T14:43:39.336Z,3.42
2023-06-15T14:46:28.503Z,3.42
2023-06-15T14:49:16.369Z,3.70
2023-06-15T14:52:04.690Z,5.03
2023-06-15T14:54:52.705Z,6.20
2023-06-15T14:57:40.846Z,6.03
2023-06-15T15:00:28.869Z,4.72
2023-06-15T15:03:18.098Z,7.97
2023-06-15T15:06:08.390Z,3.67
2023-06-15T15:08:56.137Z,5.20
2023-06-15T15:11:44.985Z,3.25
2023-06-15T15:14:32.745Z,4.07
2023-06-15T15:17:20.640Z,4.05
2023-06-15T15:20:11.050Z,3.85
2023-06-15T15:22:59.070Z,5.93
2023-06-15T15:25:47.540Z,4.25
2023-06-15T15:28:35.755Z,4.35
2023-06-15T15:31:23.726Z,4.30
2023-06-15T15:34:11.582Z,5.47
2023-06-15T15:37:01.009Z,4.57
2023-06-15T15:39:48.840Z,4.50
2023-06-15T15:42:36.604Z,4.07
2023-06-15T15:45:24.417Z,4.32
2023-06-15T15:48:12.347Z,4.82
2023-06-15T15:51:00.236Z,4.57
2023-06-15T15:53:49.389Z,6.40
2023-06-15T15:56:37.343Z,4.43
2023-06-15T15:59:25.164Z,5.85
2023-06-15T16:02:13.555Z,6.68
2023-06-15T16:05:02.235Z,4.32
2023-06-15T16:07:50.241Z,3.28
2023-06-15T16:10:39.458Z,4.55
2023-06-15T16:13:27.705Z,5.50
2023-06-15T16:16:28.204Z,4.45
2023-06-15T16:19:16.727Z,5.50
2023-06-15T16:22:04.625Z,4.28
2023-06-15T16:24:52.447Z,6.07
2023-06-15T16:27:41.793Z,5.70
2023-06-15T16:30:29.660Z,5.80
2023-06-15T16:33:17.612Z,4.85
2023-06-15T16:36:06.109Z,5.05
2023-06-15T16:38:53.839Z,3.90
2023-06-15T16:41:41.866Z,4.45
2023-06-15T16:44:30.983Z,4.60
2023-06-15T16:47:19.170Z,5.05
2023-06-15T16:50:07.868Z,6.55
2023-06-15T16:52:55.865Z,8.88
2023-06-15T16:55:43.672Z,5.95
2023-06-15T16:58:31.592Z,6.93
2023-06-15T17:01:20.978Z,12.10
2023-06-15T17:04:09.360Z,7.65
2023-06-15T17:06:57.388Z,7.05
2023-06-15T17:09:47.145Z,5.43
2023-06-15T17:12:35.265Z,4.45
2023-06-15T17:15:23.234Z,6.50
2023-06-15T17:18:13.498Z,7.75
2023-06-15T17:21:01.707Z,9.35
2023-06-15T17:23:51.044Z,11.88
2023-06-15T17:26:41.322Z,7.57
2023-06-15T17:29:29.136Z,8.45
2023-06-15T17:32:17.079Z,6.93
2023-06-15T17:35:07.200Z,5.70
2023-06-15T17:37:55.213Z,8.05
2023-06-15T17:40:43.046Z,9.70
2023-06-15T17:43:31.381Z,8.45
2023-06-15T17:46:19.323Z,7.88
2023-06-15T17:49:07.891Z,8.73
2023-06-15T17:51:57.266Z,8.43
2023-06-15T17:54:45.087Z,7.50
2023-06-15T17:57:33.085Z,10.10
2023-06-15T18:00:21.276Z,9.57
2023-06-15T18:03:09.388Z,12.57
2023-06-15T18:05:57.653Z,9.50
2023-06-15T18:08:47.216Z,9.00
2023-06-15T18:11:34.983Z,9.10
2023-06-15T18:14:24.661Z,7.05
2023-06-15T18:17:12.511Z,10.20
2023-06-15T18:20:00.260Z,7.05
2023-06-15T18:22:47.942Z,6.97
2023-06-15T18:25:37.645Z,9.10
2023-06-15T18:28:25.671Z,6.97
2023-06-15T18:31:13.541Z,8.15
2023-06-15T18:34:03.874Z,6.28
2023-06-15T18:36:51.660Z,7.72
2023-06-15T18:39:39.644Z,9.50
2023-06-15T18:42:28.814Z,8.35
2023-06-15T18:45:19.251Z,8.27
2023-06-15T18:48:07.498Z,8.38
2023-06-15T18:50:55.493Z,8.35
2023-06-15T18:53:43.440Z,15.15
2023-06-15T18:56:32.688Z,8.25
2023-06-15T18:59:22.131Z,11.15
2023-06-15T19:02:10.055Z,9.25
2023-06-15T19:04:58.174Z,8.48
2023-06-15T19:07:47.061Z,11.70
2023-06-15T19:10:37.187Z,14.75
2023-06-15T19:13:25.347Z,12.73
2023-06-15T19:16:14.625Z,9.95
2023-06-15T19:19:02.576Z,7.60
2023-06-15T19:21:50.379Z,9.10
2023-06-15T19:24:39.239Z,9.88
2023-06-15T19:27:27.178Z,8.75
2023-06-15T19:30:16.438Z,8.27
2023-06-15T19:33:09.735Z,6.85
2023-06-15T19:35:57.724Z,6.90
2023-06-15T19:38:57.296Z,6.68
2023-06-15T19:41:51.565Z,11.13
2023-06-15T19:44:39.569Z,9.18
2023-06-15T19:47:27.549Z,7.18
2023-06-15T19:50:17.495Z,9.10
2023-06-15T19:53:05.588Z,7.75
2023-06-15T19:55:57.345Z,8.15
2023-06-15T19:58:45.250Z,7.70
2023-06-15T20:01:33.135Z,6.90
2023-06-15T20:04:20.918Z,7.63
2023-06-15T20:07:12.035Z,8.80
2023-06-15T20:09:59.969Z,7.20
2023-06-15T20:12:48.124Z,6.47
2023-06-15T20:15:35.943Z,9.23
2023-06-15T20:18:23.919Z,7.55
2023-06-15T20:21:11.592Z,6.25
2023-06-15T20:24:00.898Z,7.25
2023-06-15T20:26:48.785Z,6.68
2023-06-15T20:29:39.246Z,10.15
2023-06-15T20:32:28.826Z,5.43
2023-06-15T20:35:16.698Z,9.77
2023-06-15T20:38:04.672Z,9.25
2023-06-15T20:40:54.084Z,6.97
2023-06-15T20:43:42.552Z,9.60
2023-06-15T20:46:31.793Z,8.40
2023-06-15T20:49:19.590Z,10.60
2023-06-15T20:52:07.886Z,6.57
2023-06-15T20:54:55.619Z,6.65
2023-06-15T20:57:44.788Z,5.65
2023-06-15T21:00:34.408Z,5.80
2023-06-15T21:03:22.659Z,6.55
2023-06-15T21:06:12.115Z,7.28
2023-06-15T21:09:00.703Z,6.90
2023-06-15T21:11:48.730Z,8.05
2023-06-15T21:14:39.706Z,4.57
2023-06-15T21:17:27.575Z,7.45
2023-06-15T21:20:15.969Z,5.60
2023-06-15T21:23:03.874Z,7.10
2023-06-15T21:25:51.699Z,9.68
2023-06-15T21:28:39.697Z,6.30
2023-06-15T21:31:28.949Z,5.32
2023-06-15T21:34:16.913Z,6.80
2023-06-15T21:37:06.621Z,8.88
2023-06-15T21:39:54.518Z,8.73
2023-06-15T21:42:42.262Z,6.00
2023-06-15T21:45:29.985Z,3.65
2023-06-15T21:48:19.168Z,6.75
2023-06-15T21:51:06.918Z,8.13
2023-06-15T21:53:54.805Z,5.68
2023-06-15T21:56:42.846Z,5.65
2023-06-15T21:59:31.244Z,5.28
2023-06-15T22:02:19.292Z,4.65
2023-06-15T22:05:09.834Z,4.78
2023-06-15T22:07:57.754Z,5.38
2023-06-15T22:10:45.766Z,5.50
2023-06-15T22:13:35.732Z,4.80
2023-06-15T22:16:23.807Z,5.85
2023-06-15T22:19:11.654Z,4.45
2023-06-15T22:22:01.720Z,4.03
2023-06-15T22:24:50.072Z,8.57
2023-06-15T22:27:37.888Z,5.00
2023-06-15T22:30:25.875Z,6.97
2023-06-15T22:33:13.862Z,4.78
2023-06-15T22:36:01.860Z,8.85
2023-06-15T22:38:51.493Z,4.45
2023-06-15T22:41:39.806Z,8.65
2023-06-15T22:44:28.057Z,8.20
2023-06-15T22:47:18.973Z,8.00
2023-06-15T22:50:07.565Z,8.48
2023-06-15T22:52:59.505Z,9.75
2023-06-15T22:55:48.871Z,10.10
2023-06-15T22:58:36.710Z,7.15
2023-06-15T23:01:25.278Z,7.15
2023-06-15T23:04:13.358Z,8.20
2023-06-15T23:07:04.480Z,8.27
2023-06-15T23:09:53.048Z,14.30
2023-06-15T23:12:51.762Z,18.25
2023-06-15T23:15:39.837Z,8.55
2023-06-15T23:18:28.226Z,18.88
2023-06-15T23:21:17.216Z,7.07
2023-06-15T23:24:06.664Z,9.38
2023-06-15T23:26:57.078Z,9.15
2023-06-15T23:29:49.593Z,10.38
2023-06-15T23:32:37.472Z,11.00
2023-06-15T23:35:25.280Z,10.93
2023-06-15T23:38:13.269Z,7.35
2023-06-15T23:41:01.399Z,10.57
2023-06-15T23:43:49.590Z,8.90
2023-06-15T23:46:38.922Z,8.38
2023-06-15T23:49:27.344Z,7.45
2023-06-15T23:52:15.261Z,11.45
2023-06-15T23:55:04.273Z,7.40
2023-06-15T23:57:52.173Z,9.63
